Rechercher aéroport 
image banner adimage banner adimage banner ad
image banner ad

CN63 - Exeter

Situé à Exeter, United States

ICAO - CN63, IATA -

Données fournies par Airmate  

Information générale

Coordonnées: N36°14'33" W119°8'58"
Élévation : 344 feet MSL.
Variation magnétique : 15° East
Voir autres Aéroports à California

Données opérationnelles

Special qualification required
Heure actuelle UTC:
Heure actuelle locale:
Météo à : KVIS - Visalia Muni ( 23 km )
METAR: KVIS 292356Z AUTO 32009KT 10SM CLR 39/15 A2979 RMK AO2 SLP090 T03890150 10389 20317 58024
TAF: KVIS 292320Z 3000/3024 32007KT P6SM FEW150 BKN250 FM301000 VRB03KT P6SM FEW250 FM302100 30007KT P6SM BKN250
Voir NOTAMs / SUP AIP / TFR affectant cet aéroport [VIEW]
Fréquences de communication: [VIEW]

Pistes:

Identifiant RWYQFULongueur (ft)Largeur (ft)SurfaceLDA (ft)
13231540OTHER
31231540OTHER

Coordonnées de l'aéroport

Adresse: Exeter United States

Vue satellite de CN63